Time;durP1;ratioP1;P1;durP2;ratioP2;P2;SDS_P1;SDS_P2;PMS_P1;PMS_P2;Temp;Humidity;BMP_temperature;BMP_pressure;BME280_temperature;BME280_humidity;BME280_pressure;Samples;Min_cycle;Max_cycle;Signal;HPM_P1;HPM_P2
2023/05/12 00:00:57;;;;;;;5.03;3.15;;;;;;;10.58;nan;60619.97;4972605;28;20170;-69
2023/05/12 00:03:23;;;;;;;4.10;2.92;;;;;;;10.33;nan;60607.25;4972616;28;20644;-68
2023/05/12 00:05:48;;;;;;;3.67;3.15;;;;;;;10.54;nan;60659.44;4978006;28;20263;-70
2023/05/12 00:08:14;;;;;;;4.85;3.13;;;;;;;10.54;nan;60664.56;4976023;28;20265;-70
2023/05/12 00:10:39;;;;;;;4.65;2.97;;;;;;;10.75;nan;60671.69;4975460;28;20233;-70
2023/05/12 00:13:05;;;;;;;5.22;3.53;;;;;;;10.78;nan;60659.72;4975840;28;20174;-69
2023/05/12 00:15:30;;;;;;;5.50;3.45;;;;;;;10.54;nan;60633.91;4975808;28;20284;-70
2023/05/12 00:17:56;;;;;;;4.38;2.90;;;;;;;10.79;nan;60609.75;4975730;28;20177;-70
2023/05/12 00:20:21;;;;;;;4.18;3.03;;;;;;;10.59;nan;60631.88;4975649;28;20212;-68
2023/05/12 00:22:47;;;;;;;6.28;3.42;;;;;;;10.76;nan;60647.84;4975652;28;20184;-69
2023/05/12 00:25:12;;;;;;;3.78;2.78;;;;;;;10.62;nan;60642.34;4975373;28;20201;-69
2023/05/12 00:27:37;;;;;;;4.15;2.90;;;;;;;10.72;nan;60640.25;4975712;28;20260;-68
2023/05/12 00:30:03;;;;;;;4.20;2.92;;;;;;;10.68;nan;60842.63;4975202;28;20268;-69
2023/05/12 00:32:29;;;;;;;5.72;3.40;;;;;;;10.47;nan;60631.19;4975558;28;20675;-70
2023/05/12 00:34:55;;;;;;;5.70;3.47;;;;;;;10.61;nan;60631.56;4975553;28;20177;-70
2023/05/12 00:37:21;;;;;;;4.28;2.90;;;;;;;10.55;nan;60647.81;4975625;28;20260;-69
2023/05/12 00:39:46;;;;;;;4.80;3.03;;;;;;;10.57;nan;60650.06;4975143;28;20652;-70
2023/05/12 00:42:11;;;;;;;4.95;2.92;;;;;;;10.14;nan;60592.16;4975321;28;20173;-70
2023/05/12 00:44:37;;;;;;;4.95;3.05;;;;;;;10.43;nan;60544.44;4975367;28;20197;-68
2023/05/12 00:47:03;;;;;;;4.38;3.40;;;;;;;10.36;nan;60779.13;4975298;28;20269;-71
2023/05/12 00:49:30;;;;;;;4.72;3.00;;;;;;;10.33;nan;60605.25;4975264;28;20177;-70
2023/05/12 00:51:57;;;;;;;5.53;3.33;;;;;;;10.21;nan;60579.06;4975168;28;20244;-70
2023/05/12 00:54:25;;;;;;;3.25;2.72;;;;;;;10.28;nan;60563.91;4974834;28;20197;-70
2023/05/12 00:56:50;;;;;;;4.28;3.10;;;;;;;10.25;nan;60759.06;4975703;28;20654;-68
2023/05/12 00:59:16;;;;;;;3.83;2.72;;;;;;;9.38;nan;60440.69;4975098;28;20277;-70
2023/05/12 01:01:41;;;;;;;4.43;3.00;;;;;;;10.09;nan;60553.38;4973805;28;20177;-69
2023/05/12 01:04:07;;;;;;;4.30;2.70;;;;;;;10.00;nan;60517.22;4974424;28;20193;-70
2023/05/12 01:06:44;;;;;;;5.63;3.33;;;;;;;10.38;nan;60498.56;4974596;28;20173;-68
2023/05/12 01:09:10;;;;;;;4.28;3.08;;;;;;;10.17;nan;60546.50;4974795;28;20229;-70
2023/05/12 01:11:35;;;;;;;7.60;3.17;;;;;;;10.38;nan;60503.66;4974371;28;20271;-69
2023/05/12 01:14:01;;;;;;;5.55;3.17;;;;;;;10.10;nan;60510.56;4974543;28;20208;-70
2023/05/12 01:16:33;;;;;;;6.80;3.17;;;;;;;9.97;nan;60460.84;4973271;28;20557;-69
2023/05/12 01:19:04;;;;;;;6.05;3.42;;;;;;;9.96;nan;60497.41;4974541;28;20162;-69
2023/05/12 01:21:30;;;;;;;4.88;3.25;;;;;;;10.28;nan;60530.75;4973939;28;20201;-69
2023/05/12 01:24:00;;;;;;;5.18;2.78;;;;;;;10.14;nan;60527.78;4974100;28;20197;-70
2023/05/12 01:26:28;;;;;;;6.07;3.30;;;;;;;9.96;nan;60466.81;4974390;28;20184;-68
2023/05/12 01:28:54;;;;;;;6.13;3.67;;;;;;;10.15;nan;60491.22;4974246;28;20162;-69
2023/05/12 01:31:20;;;;;;;3.72;2.72;;;;;;;10.29;nan;60524.22;4974022;28;20253;-71
2023/05/12 01:33:46;;;;;;;5.03;3.13;;;;;;;10.47;nan;60603.09;4973963;28;20173;-69
2023/05/12 01:36:11;;;;;;;3.20;2.60;;;;;;;10.30;nan;60514.56;4974436;28;20185;-68
2023/05/12 01:38:37;;;;;;;5.18;3.10;;;;;;;10.22;nan;60503.59;4989282;28;20561;-70
2023/05/12 01:41:02;;;;;;;3.72;2.72;;;;;;;9.82;nan;60476.63;4974529;28;20267;-71
2023/05/12 01:43:27;;;;;;;4.35;3.05;;;;;;;10.04;nan;60498.72;4973035;28;20173;-70
2023/05/12 01:45:53;;;;;;;4.13;3.20;;;;;;;9.77;nan;60469.06;4974124;28;20706;-69
2023/05/12 01:48:18;;;;;;;4.72;3.30;;;;;;;10.07;nan;60479.13;4974411;28;20173;-70
2023/05/12 01:50:43;;;;;;;5.13;3.17;;;;;;;10.08;nan;60467.50;4973956;28;20178;-70
2023/05/12 01:53:09;;;;;;;4.03;2.97;;;;;;;10.16;nan;60473.91;4974271;28;20174;-68
2023/05/12 01:55:35;;;;;;;3.45;2.70;;;;;;;10.02;nan;60622.06;4973934;28;20220;-69
2023/05/12 01:58:00;;;;;;;3.88;2.70;;;;;;;10.04;nan;60404.88;4974149;28;20557;-70
2023/05/12 02:00:26;;;;;;;4.35;2.80;;;;;;;9.83;nan;60449.72;4973716;28;20183;-70
2023/05/12 02:02:51;;;;;;;4.03;2.88;;;;;;;10.23;nan;60509.81;4973882;28;20203;-69
2023/05/12 02:05:17;;;;;;;4.47;3.03;;;;;;;10.32;nan;60552.53;4973515;28;20324;-70
2023/05/12 02:07:42;;;;;;;5.85;2.85;;;;;;;9.93;nan;60486.97;4974254;28;20169;-70
2023/05/12 02:10:08;;;;;;;3.00;2.65;;;;;;;9.56;nan;60532.78;4973717;28;20217;-70
2023/05/12 02:12:33;;;;;;;4.32;3.10;;;;;;;10.17;nan;60531.72;4973984;28;20180;-69
2023/05/12 02:14:59;;;;;;;4.22;3.03;;;;;;;9.79;nan;60448.34;4973642;28;20173;-69
2023/05/12 02:17:24;;;;;;;4.35;3.05;;;;;;;10.08;nan;60500.66;4973471;28;20182;-68
2023/05/12 02:19:51;;;;;;;6.63;2.88;;;;;;;9.91;nan;60445.91;4973280;28;20197;-71
2023/05/12 02:22:17;;;;;;;3.50;2.80;;;;;;;9.77;nan;60502.78;4973480;28;20189;-70
2023/05/12 02:24:42;;;;;;;4.50;2.83;;;;;;;9.81;nan;60501.59;4973184;28;20209;-70
2023/05/12 02:27:07;;;;;;;3.90;2.90;;;;;;;9.69;nan;60437.16;4973127;28;20177;-69
2023/05/12 02:29:33;;;;;;;3.90;2.73;;;;;;;9.82;nan;60458.78;4973300;28;20497;-69
2023/05/12 02:31:58;;;;;;;4.57;3.23;;;;;;;10.17;nan;60523.53;4973336;28;20178;-68
2023/05/12 02:34:23;;;;;;;5.18;3.10;;;;;;;9.82;nan;60476.63;4973072;28;20173;-68
2023/05/12 02:36:49;;;;;;;5.47;3.35;;;;;;;9.91;nan;60481.63;4973401;28;20178;-71
2023/05/12 02:39:14;;;;;;;6.50;3.63;;;;;;;9.82;nan;60461.91;4973155;28;20264;-70
2023/05/12 02:41:40;;;;;;;5.13;3.40;;;;;;;9.53;nan;60393.75;4973222;28;20565;-69
2023/05/12 02:44:05;;;;;;;5.33;3.20;;;;;;;9.69;nan;60559.53;4973111;28;20578;-70
2023/05/12 02:46:30;;;;;;;5.57;3.40;;;;;;;9.91;nan;60428.06;4973105;28;20208;-71
2023/05/12 02:48:56;;;;;;;5.63;3.20;;;;;;;9.97;nan;60524.06;4972502;28;20565;-70
2023/05/12 02:51:21;;;;;;;4.73;3.53;;;;;;;9.48;nan;60439.69;4973363;28;20174;-69
2023/05/12 02:53:47;;;;;;;5.70;3.47;;;;;;;9.85;nan;60393.84;4973171;28;20173;-69
2023/05/12 02:56:12;;;;;;;4.87;3.80;;;;;;;9.59;nan;60418.88;4972892;28;20600;-69
2023/05/12 02:58:38;;;;;;;4.27;3.13;;;;;;;9.72;nan;60440.50;4973097;28;20649;-69
2023/05/12 03:01:03;;;;;;;5.93;3.60;;;;;;;9.93;nan;60494.06;4973005;28;20192;-70
2023/05/12 03:03:28;;;;;;;4.53;3.17;;;;;;;9.94;nan;60597.22;4972479;28;20664;-70
2023/05/12 03:05:54;;;;;;;5.77;3.57;;;;;;;9.64;nan;60427.03;4973341;28;20220;-72
2023/05/12 03:08:19;;;;;;;5.07;3.57;;;;;;;10.07;nan;60617.47;4972978;28;20236;-70
2023/05/12 03:10:45;;;;;;;5.43;3.63;;;;;;;9.84;nan;60481.44;4974806;28;20217;-70
2023/05/12 03:13:10;;;;;;;5.80;3.57;;;;;;;10.11;nan;60532.09;4972555;28;20315;-71
2023/05/12 03:15:35;;;;;;;5.23;3.17;;;;;;;10.12;nan;60561.84;4973192;28;20177;-69
2023/05/12 03:18:01;;;;;;;6.67;3.10;;;;;;;10.11;nan;60522.44;4972815;28;20212;-70
2023/05/12 03:20:27;;;;;;;7.97;3.30;;;;;;;10.07;nan;60535.81;4987598;28;20190;-71
2023/05/12 03:22:52;;;;;;;9.57;3.37;;;;;;;10.27;nan;60541.81;4974625;28;20312;-70
2023/05/12 03:25:18;;;;;;;5.85;3.22;;;;;;;10.32;nan;60517.34;4972946;28;20217;-69
2023/05/12 03:27:43;;;;;;;4.10;3.00;;;;;;;10.21;nan;60550.97;4972841;28;20178;-70
2023/05/12 03:30:09;;;;;;;6.93;2.85;;;;;;;10.40;nan;60574.84;4977081;28;20187;-70
2023/05/12 03:32:34;;;;;;;3.28;2.67;;;;;;;10.04;nan;60560.53;4972612;28;20185;-69
2023/05/12 03:35:00;;;;;;;3.90;3.05;;;;;;;10.34;nan;60552.78;4976677;28;20649;-70
2023/05/12 03:37:25;;;;;;;4.05;2.80;;;;;;;10.21;nan;60586.16;4972888;28;20182;-71
2023/05/12 03:39:54;;;;;;;4.95;3.00;;;;;;;10.21;nan;60591.81;4977130;28;20188;-70
2023/05/12 03:42:20;;;;;;;3.38;2.60;;;;;;;10.26;nan;60602.53;4974922;28;20240;-70
2023/05/12 03:44:46;;;;;;;3.40;2.50;;;;;;;10.47;nan;60620.97;4978242;28;20204;-70
2023/05/12 03:47:12;;;;;;;4.68;2.70;;;;;;;10.71;nan;60652.44;4978095;28;20185;-69
2023/05/12 03:49:37;;;;;;;4.55;2.90;;;;;;;10.25;nan;60585.53;4977827;28;20641;-68
2023/05/12 03:52:03;;;;;;;3.38;2.50;;;;;;;10.15;nan;60590.16;4978417;28;20185;-69
2023/05/12 03:54:29;;;;;;;3.45;2.58;;;;;;;10.43;nan;60790.09;4980377;28;20652;-71
2023/05/12 03:56:55;;;;;;;3.97;3.00;;;;;;;10.23;nan;60578.72;4980695;28;20268;-70
2023/05/12 03:59:20;;;;;;;5.18;2.97;;;;;;;10.39;nan;60636.97;4976257;28;20672;-69
2023/05/12 04:01:46;;;;;;;3.05;2.38;;;;;;;9.61;nan;60724.53;4975874;28;20193;-70
2023/05/12 04:04:11;;;;;;;8.20;3.03;;;;;;;10.56;nan;60809.25;4978067;28;20717;-69
2023/05/12 04:06:37;;;;;;;5.75;2.95;;;;;;;10.36;nan;60602.97;4975904;28;20197;-71
2023/05/12 04:09:03;;;;;;;4.55;2.78;;;;;;;10.55;nan;60686.13;4975716;28;20204;-70
2023/05/12 04:11:28;;;;;;;4.93;3.05;;;;;;;10.93;nan;60691.91;4975448;28;20283;-70
2023/05/12 04:13:54;;;;;;;4.03;2.95;;;;;;;10.85;nan;60678.38;4975344;28;20196;-69
2023/05/12 04:16:19;;;;;;;4.65;3.20;;;;;;;10.84;nan;60730.34;4975498;28;20327;-70
2023/05/12 04:18:45;;;;;;;5.85;3.10;;;;;;;10.73;nan;60659.25;4975673;28;20276;-69
2023/05/12 04:21:10;;;;;;;3.95;2.80;;;;;;;11.22;nan;60772.47;4975487;28;20255;-71
2023/05/12 04:23:36;;;;;;;6.60;2.72;;;;;;;11.24;nan;60726.16;4975112;28;20181;-70
2023/05/12 04:26:04;;;;;;;3.78;2.65;;;;;;;11.03;nan;60715.91;4990159;28;20247;-67
2023/05/12 04:28:30;;;;;;;3.30;2.35;;;;;;;11.23;nan;60740.38;4975416;28;20177;-68
2023/05/12 04:30:55;;;;;;;8.32;2.88;;;;;;;10.99;nan;60736.97;4975436;28;20174;-68
2023/05/12 04:33:21;;;;;;;3.85;2.58;;;;;;;11.12;nan;60728.56;4974159;28;20678;-68
2023/05/12 04:35:46;;;;;;;3.88;2.75;;;;;;;11.17;nan;60764.88;4974871;28;20181;-68
2023/05/12 04:38:12;;;;;;;3.70;2.60;;;;;;;11.46;nan;60817.94;4975207;28;20162;-68
2023/05/12 04:40:37;;;;;;;3.83;2.70;;;;;;;11.44;nan;60827.91;4989916;28;20174;-70
2023/05/12 04:43:03;;;;;;;3.22;2.45;;;;;;;11.32;nan;60737.69;4974812;28;20196;-68
2023/05/12 04:45:29;;;;;;;3.90;2.63;;;;;;;11.48;nan;60763.91;4974543;28;20292;-68
2023/05/12 04:47:55;;;;;;;4.07;2.95;;;;;;;11.30;nan;60748.78;4974689;28;20268;-71
2023/05/12 04:50:20;;;;;;;3.97;2.65;;;;;;;11.49;nan;60767.59;4973549;28;20220;-70
2023/05/12 04:52:45;;;;;;;4.38;3.03;;;;;;;11.62;nan;60791.28;4974612;28;20185;-67
2023/05/12 04:55:11;;;;;;;3.95;2.97;;;;;;;11.70;nan;60788.06;4974284;28;20184;-69
2023/05/12 04:57:36;;;;;;;4.45;3.10;;;;;;;11.60;nan;60809.53;4974729;28;20716;-69
2023/05/12 05:00:04;;;;;;;4.05;2.47;;;;;;;11.93;nan;60806.25;4974614;28;20744;-70
2023/05/12 05:02:30;;;;;;;4.30;2.83;;;;;;;12.02;nan;60856.78;4974531;28;20192;-71
2023/05/12 05:04:56;;;;;;;7.05;3.08;;;;;;;11.72;nan;60858.84;4974022;28;20200;-69
2023/05/12 05:07:21;;;;;;;5.13;2.67;;;;;;;11.80;nan;60824.34;4974500;28;20613;-71
2023/05/12 05:09:46;;;;;;;4.50;2.72;;;;;;;12.02;nan;60805.59;4974123;28;20174;-71
2023/05/12 05:12:12;;;;;;;4.57;3.08;;;;;;;12.30;nan;60931.81;4974270;28;20189;-69
2023/05/12 05:14:37;;;;;;;4.28;2.67;;;;;;;11.84;nan;60846.75;4989135;28;20205;-70
2023/05/12 05:17:05;;;;;;;5.45;2.50;;;;;;;11.96;nan;60867.94;4974175;28;20700;-70
2023/05/12 05:19:31;;;;;;;4.13;2.72;;;;;;;11.56;nan;60797.91;4974251;28;20224;-70
2023/05/12 05:21:56;;;;;;;7.00;2.88;;;;;;;11.67;nan;61022.63;4974219;28;20162;-70
2023/05/12 05:24:22;;;;;;;4.20;3.00;;;;;;;11.56;nan;60792.78;4974146;28;20239;-69
2023/05/12 05:26:47;;;;;;;4.25;2.83;;;;;;;11.68;nan;60837.00;4973779;28;20169;-69
2023/05/12 05:29:13;;;;;;;3.50;2.58;;;;;;;11.95;nan;60962.09;4973956;28;20228;-69
2023/05/12 05:31:38;;;;;;;3.63;2.88;;;;;;;11.88;nan;60853.84;4974051;28;20189;-68
2023/05/12 05:34:03;;;;;;;5.40;2.92;;;;;;;12.08;nan;60850.72;4974031;28;20173;-69
2023/05/12 05:36:29;;;;;;;4.85;2.80;;;;;;;12.29;nan;60884.59;4974087;28;20212;-69
2023/05/12 05:38:54;;;;;;;3.85;2.95;;;;;;;12.52;nan;60899.69;4973871;28;20185;-70
2023/05/12 05:41:21;;;;;;;4.05;2.97;;;;;;;12.49;nan;60909.09;4988870;28;20173;-70
2023/05/12 05:43:47;;;;;;;4.63;2.85;;;;;;;12.79;nan;60970.50;4973501;28;20184;-72
2023/05/12 05:46:12;;;;;;;5.32;2.95;;;;;;;13.35;nan;61025.38;4973410;28;20169;-70
2023/05/12 05:48:37;;;;;;;4.72;3.00;;;;;;;13.54;nan;61239.25;4973482;28;20634;-68
2023/05/12 05:51:04;;;;;;;3.47;2.78;;;;;;;13.56;nan;61100.34;4988238;28;20184;-68
2023/05/12 05:53:29;;;;;;;5.18;2.65;;;;;;;13.10;nan;60999.72;4972500;28;20205;-70
2023/05/12 05:55:54;;;;;;;3.33;2.80;;;;;;;12.91;nan;60984.00;4972687;28;20620;-72
2023/05/12 05:58:20;;;;;;;4.13;3.03;;;;;;;12.53;nan;60916.16;4973819;28;20185;-68
2023/05/12 06:00:45;;;;;;;5.65;2.67;;;;;;;13.01;nan;61015.78;4973432;28;20180;-70
2023/05/12 06:03:11;;;;;;;5.10;2.78;;;;;;;13.52;nan;61047.09;4973088;28;20271;-70
2023/05/12 06:05:36;;;;;;;3.88;3.00;;;;;;;14.25;nan;61128.28;4972644;28;20237;-70
2023/05/12 06:08:04;;;;;;;6.22;3.05;;;;;;;14.25;nan;61153.41;4972337;28;20227;-68
2023/05/12 06:10:29;;;;;;;3.78;2.70;;;;;;;14.47;nan;61189.13;4972564;28;20252;-69
2023/05/12 06:12:54;;;;;;;4.20;3.00;;;;;;;14.08;nan;61127.66;4972565;28;20196;-69
2023/05/12 06:15:20;;;;;;;3.35;2.47;;;;;;;14.37;nan;61125.88;4972602;28;20185;-70
2023/05/12 06:17:46;;;;;;;4.47;2.55;;;;;;;13.90;nan;61186.38;4972969;28;20169;-70
2023/05/12 06:20:12;;;;;;;4.28;2.65;;;;;;;14.28;nan;61303.28;4972761;28;20173;-69
2023/05/12 06:22:38;;;;;;;5.28;2.70;;;;;;;14.39;nan;61144.09;4973795;28;20180;-68
2023/05/12 06:25:04;;;;;;;3.50;2.58;;;;;;;14.73;nan;61335.63;4973115;28;20193;-69
2023/05/12 06:27:30;;;;;;;5.78;2.70;;;;;;;14.86;nan;61185.75;4973319;28;20289;-70
2023/05/12 06:29:55;;;;;;;3.70;2.80;;;;;;;15.65;nan;61258.41;4973202;28;20661;-70
2023/05/12 06:32:21;;;;;;;3.72;2.60;;;;;;;15.60;nan;61289.38;4973658;28;20195;-70
2023/05/12 06:34:46;;;;;;;3.55;2.20;;;;;;;15.93;nan;61328.13;4973879;28;20277;-69
2023/05/12 06:37:11;;;;;;;5.28;3.08;;;;;;;15.98;nan;61316.31;4972960;28;20173;-69
2023/05/12 06:39:37;;;;;;;4.13;2.60;;;;;;;16.55;nan;61555.59;4972975;28;20188;-69
2023/05/12 06:42:02;;;;;;;3.92;2.25;;;;;;;16.87;nan;61430.78;4973181;28;20169;-68
2023/05/12 06:44:28;;;;;;;3.20;2.35;;;;;;;17.38;nan;61460.13;4972879;28;20562;-69
2023/05/12 06:46:53;;;;;;;2.45;1.98;;;;;;;16.66;nan;61423.63;4973262;28;20602;-69
2023/05/12 06:49:19;;;;;;;3.95;2.35;;;;;;;16.30;nan;61372.53;4973413;28;20685;-69
2023/05/12 06:51:45;;;;;;;3.78;2.65;;;;;;;15.52;nan;61244.28;4973249;28;20625;-68
2023/05/12 06:54:10;;;;;;;4.38;2.38;;;;;;;16.07;nan;61343.94;4972917;28;20503;-71
2023/05/12 06:56:36;;;;;;;3.15;2.38;;;;;;;15.79;nan;61333.47;4972795;28;20180;-70
2023/05/12 06:59:02;;;;;;;3.78;2.50;;;;;;;15.87;nan;61286.41;4973350;28;20231;-70
2023/05/12 07:01:30;;;;;;;3.28;2.38;;;;;;;15.60;nan;61425.84;4973056;28;20177;-70
2023/05/12 07:03:56;;;;;;;4.15;2.33;;;;;;;15.31;nan;61264.28;4973076;28;20189;-69
2023/05/12 07:06:22;;;;;;;3.25;2.30;;;;;;;14.96;nan;61423.97;4973103;28;20281;-69
2023/05/12 07:08:47;;;;;;;3.33;2.42;;;;;;;15.64;nan;61273.28;4972866;28;20178;-71
2023/05/12 07:11:18;;;;;;;3.45;2.50;;;;;;;14.91;nan;61243.41;4973020;28;20229;-68
2023/05/12 07:13:46;;;;;;;4.05;2.25;;;;;;;14.80;nan;61227.81;4974983;28;20192;-69
2023/05/12 07:16:11;;;;;;;3.72;2.30;;;;;;;14.70;nan;61165.69;4977272;28;20180;-67
2023/05/12 07:18:37;;;;;;;2.85;2.47;;;;;;;14.75;nan;61222.19;4976669;28;20177;-70
2023/05/12 07:21:02;;;;;;;4.20;2.58;;;;;;;14.75;nan;61229.91;4976892;28;20177;-69
2023/05/12 07:23:28;;;;;;;3.45;2.25;;;;;;;14.51;nan;61167.94;4975323;28;20184;-69
2023/05/12 07:25:53;;;;;;;2.53;2.10;;;;;;;14.32;nan;61181.88;4976268;28;20204;-69
2023/05/12 07:28:19;;;;;;;3.92;2.53;;;;;;;14.99;nan;61229.28;4976659;28;20177;-69
2023/05/12 07:30:45;;;;;;;4.47;2.10;;;;;;;15.29;nan;61285.22;4976724;28;20200;-70
2023/05/12 07:33:10;;;;;;;2.47;1.92;;;;;;;15.59;nan;61339.75;4977093;28;20196;-70
2023/05/12 07:35:35;;;;;;;4.22;2.28;;;;;;;14.99;nan;61329.03;4976554;28;20179;-69
2023/05/12 07:38:02;;;;;;;4.30;2.50;;;;;;;14.89;nan;61256.56;4976285;28;20181;-69
2023/05/12 07:40:27;;;;;;;3.45;2.38;;;;;;;15.21;nan;61240.72;4976788;28;20173;-68
2023/05/12 07:42:53;;;;;;;3.42;2.28;;;;;;;15.65;nan;61325.94;4975734;28;20184;-69
2023/05/12 07:45:22;;;;;;;2.25;2.05;;;;;;;15.53;nan;61288.63;4976702;28;20197;-70
2023/05/12 07:47:49;;;;;;;3.15;1.90;;;;;;;15.18;nan;61286.19;4976169;28;20176;-70
2023/05/12 07:50:14;;;;;;;3.17;2.17;;;;;;;15.32;nan;61286.03;4975065;28;20177;-70
2023/05/12 07:52:50;;;;;;;4.15;2.60;;;;;;;16.37;nan;61537.72;4976336;28;20232;-70
2023/05/12 07:55:19;;;;;;;2.55;1.98;;;;;;;16.86;nan;61450.28;4976262;28;20256;-71
2023/05/12 07:57:44;;;;;;;4.57;2.25;;;;;;;16.86;nan;61419.88;4977666;28;20189;-71
2023/05/12 08:00:11;;;;;;;5.28;2.53;;;;;;;15.22;nan;61231.53;4976533;28;20177;-69
2023/05/12 08:02:37;;;;;;;3.95;2.50;;;;;;;15.06;nan;61460.47;4976302;28;20248;-70
2023/05/12 08:05:03;;;;;;;3.35;2.60;;;;;;;15.46;nan;61243.19;4976065;28;20628;-69
2023/05/12 08:07:28;;;;;;;4.18;2.72;;;;;;;16.28;nan;61396.63;4975927;28;20177;-70
2023/05/12 08:09:54;;;;;;;3.45;2.40;;;;;;;16.73;nan;61353.59;4975736;28;20235;-69
2023/05/12 08:12:20;;;;;;;3.38;2.40;;;;;;;17.09;nan;61620.88;4976175;28;20704;-69
2023/05/12 08:14:45;;;;;;;3.35;2.55;;;;;;;17.41;nan;61504.81;4975849;28;20260;-70
2023/05/12 08:17:11;;;;;;;2.30;2.10;;;;;;;16.61;nan;61412.22;4990752;28;20181;-69
2023/05/12 08:19:36;;;;;;;3.60;2.45;;;;;;;16.53;nan;61406.31;4975851;28;20232;-69
2023/05/12 08:22:02;;;;;;;3.22;2.42;;;;;;;16.20;nan;61351.50;4975576;28;20180;-69
2023/05/12 08:24:27;;;;;;;2.95;2.17;;;;;;;16.33;nan;61381.66;4975024;28;20764;-69
2023/05/12 08:26:53;;;;;;;2.85;2.35;;;;;;;16.55;nan;61403.41;4976041;28;20170;-69
2023/05/12 08:29:18;;;;;;;2.92;2.03;;;;;;;16.85;nan;61431.09;4975497;28;20179;-69
2023/05/12 08:31:44;;;;;;;2.70;2.10;;;;;;;16.88;nan;61419.00;4974430;28;20641;-70
2023/05/12 08:34:09;;;;;;;3.70;2.40;;;;;;;16.91;nan;61430.13;4975752;28;20285;-71
2023/05/12 08:36:35;;;;;;;3.40;2.20;;;;;;;17.08;nan;61475.19;4975413;28;20256;-70
2023/05/12 08:39:01;;;;;;;3.25;2.35;;;;;;;17.10;nan;61534.25;4975049;28;20633;-68
2023/05/12 08:41:41;;;;;;;3.47;2.50;;;;;;;16.50;nan;61390.03;4991034;28;20166;-68
2023/05/12 08:44:07;;;;;;;6.93;2.42;;;;;;;16.87;nan;61617.13;4975553;28;20208;-70
2023/05/12 08:46:33;;;;;;;3.58;2.58;;;;;;;16.39;nan;61398.19;4975070;28;20177;-68
2023/05/12 08:49:01;;;;;;;2.78;2.30;;;;;;;16.63;nan;61394.44;4975478;28;20180;-70
2023/05/12 08:51:30;;;;;;;3.67;2.40;;;;;;;16.54;nan;61373.91;4974823;28;20181;-70
2023/05/12 08:53:55;;;;;;;3.28;2.40;;;;;;;16.28;nan;61362.53;4974000;28;20212;-69
2023/05/12 08:56:21;;;;;;;2.50;2.00;;;;;;;16.38;nan;61345.50;4975983;28;20697;-70
2023/05/12 08:58:47;;;;;;;2.55;2.20;;;;;;;16.66;nan;61590.72;4975061;28;20177;-69
2023/05/12 09:01:14;;;;;;;3.80;2.17;;;;;;;15.99;nan;61334.91;4974516;28;20178;-68
2023/05/12 09:03:40;;;;;;;3.42;2.10;;;;;;;16.69;nan;61488.38;4974629;28;20174;-69
2023/05/12 09:06:07;;;;;;;2.90;2.35;;;;;;;16.78;nan;61411.38;4974331;28;20212;-68
2023/05/12 09:08:33;;;;;;;2.90;2.50;;;;;;;15.97;nan;61330.63;4974420;28;20177;-69
2023/05/12 09:11:00;;;;;;;3.72;2.60;;;;;;;15.57;nan;61300.88;4974436;28;20595;-69
2023/05/12 09:13:31;;;;;;;3.10;2.38;;;;;;;16.33;nan;61363.59;4989191;28;20631;-69
2023/05/12 09:16:00;;;;;;;3.67;2.53;;;;;;;16.74;nan;61412.03;4974131;28;20232;-68
2023/05/12 09:18:43;;;;;;;2.88;2.30;;;;;;;15.39;nan;61319.69;4973885;28;20166;-69
2023/05/12 09:21:08;;;;;;;3.65;2.20;;;;;;;15.31;nan;61346.66;4972711;28;20173;-70
2023/05/12 09:23:34;;;;;;;3.05;2.50;;;;;;;15.19;nan;61400.56;4974479;28;20166;-69
2023/05/12 09:26:00;;;;;;;4.43;2.67;;;;;;;15.29;nan;61277.50;4972913;28;20196;-69
2023/05/12 09:28:34;;;;;;;4.18;2.42;;;;;;;16.09;nan;61390.03;4974368;28;20177;-69
2023/05/12 09:31:00;;;;;;;3.55;2.50;;;;;;;15.68;nan;61331.88;4974330;28;20169;-70
2023/05/12 09:33:25;;;;;;;3.42;2.53;;;;;;;15.69;nan;61474.09;4974435;28;20616;-70
2023/05/12 09:35:51;;;;;;;4.50;2.65;;;;;;;15.69;nan;61302.13;4974576;28;20201;-69
2023/05/12 09:38:17;;;;;;;2.72;2.22;;;;;;;15.51;nan;61217.41;4977189;28;20264;-71
2023/05/12 09:40:42;;;;;;;2.72;2.40;;;;;;;15.69;nan;61324.72;4974224;28;20573;-70
2023/05/12 09:43:08;;;;;;;3.08;2.40;;;;;;;16.12;nan;61308.38;4974235;28;20240;-69
2023/05/12 09:45:42;;;;;;;5.47;2.70;;;;;;;15.59;nan;61483.94;4973925;28;20211;-68
2023/05/12 09:48:12;;;;;;;3.15;2.10;;;;;;;16.23;nan;61387.84;4975902;28;20189;-70
2023/05/12 09:50:49;;;;;;;5.53;2.50;;;;;;;16.10;nan;61349.91;4974014;28;20185;-73
2023/05/12 09:53:17;;;;;;;7.20;2.10;;;;;;;15.75;nan;61314.06;4973880;28;20181;-69
2023/05/12 09:55:46;;;;;;;3.28;2.28;;;;;;;15.77;nan;61324.03;4975568;28;20174;-68
2023/05/12 09:58:14;;;;;;;2.92;2.40;;;;;;;16.04;nan;61301.91;4973556;28;20583;-69
2023/05/12 10:00:40;;;;;;;3.00;2.22;;;;;;;16.09;nan;61536.94;4973586;28;20180;-69
2023/05/12 10:03:12;;;;;;;2.97;2.35;;;;;;;16.09;nan;61308.13;4988864;28;20268;-70
2023/05/12 10:05:46;;;;;;;3.10;2.10;;;;;;;16.05;nan;61308.75;4973841;28;20209;-70
2023/05/12 10:08:23;;;;;;;3.50;2.45;;;;;;;15.77;nan;61344.06;4973866;28;20172;-67
2023/05/12 10:10:51;;;;;;;2.90;2.60;;;;;;;15.96;nan;61339.81;4988518;28;20220;-69
2023/05/12 10:13:17;;;;;;;2.67;2.13;;;;;;;16.19;nan;61372.97;4973729;28;20173;-69
2023/05/12 10:15:46;;;;;;;3.33;2.45;;;;;;;15.39;nan;61265.63;4974250;28;20212;-68
2023/05/12 10:18:11;;;;;;;2.50;2.05;;;;;;;16.43;nan;61366.06;4973834;28;20260;-68
2023/05/12 10:20:38;;;;;;;2.95;2.30;;;;;;;16.55;nan;61398.25;4973377;28;20620;-68
2023/05/12 10:23:05;;;;;;;2.42;1.80;;;;;;;16.98;nan;61469.59;4973194;28;20247;-68
2023/05/12 10:25:32;;;;;;;2.42;2.17;;;;;;;17.12;nan;61469.41;4973221;28;20743;-70
2023/05/12 10:28:00;;;;;;;3.00;2.15;;;;;;;17.54;nan;61482.81;4973374;28;20180;-71
2023/05/12 10:30:26;;;;;;;3.80;2.35;;;;;;;17.09;nan;61491.81;4973364;28;20169;-68
2023/05/12 10:32:51;;;;;;;4.05;2.30;;;;;;;17.45;nan;61506.19;4973839;28;20188;-72
2023/05/12 10:35:17;;;;;;;3.20;2.30;;;;;;;17.09;nan;61461.41;4973229;28;20157;-70
2023/05/12 10:37:45;;;;;;;4.75;2.63;;;;;;;16.72;nan;61427.25;4972537;28;20178;-70
2023/05/12 10:40:10;;;;;;;3.60;2.20;;;;;;;17.56;nan;61465.00;4973022;28;20177;-68
2023/05/12 10:42:38;;;;;;;2.78;2.10;;;;;;;17.70;nan;61694.19;4973037;28;20158;-69
2023/05/12 10:45:15;;;;;;;2.30;2.10;;;;;;;18.30;nan;61586.47;4972357;28;20711;-68
2023/05/12 10:47:41;;;;;;;2.58;2.20;;;;;;;17.74;nan;61778.84;4972555;28;20655;-70
2023/05/12 10:50:07;;;;;;;2.83;2.20;;;;;;;17.58;nan;61534.44;4972815;28;20184;-68
2023/05/12 10:52:33;;;;;;;2.90;2.00;;;;;;;17.96;nan;61566.03;4972534;28;20173;-70
2023/05/12 10:55:00;;;;;;;4.05;1.95;;;;;;;17.80;nan;61566.00;4976960;28;20181;-68
2023/05/12 10:57:27;;;;;;;2.53;2.10;;;;;;;17.60;nan;61518.63;4973049;28;20637;-70
2023/05/12 10:59:57;;;;;;;2.60;2.20;;;;;;;17.18;nan;61461.28;4972733;28;20173;-69
2023/05/12 11:02:33;;;;;;;3.00;2.17;;;;;;;17.62;nan;61538.41;4971665;28;20200;-69
2023/05/12 11:04:59;;;;;;;2.85;2.30;;;;;;;17.34;nan;61465.91;4972473;28;20263;-68
2023/05/12 11:07:30;;;;;;;2.50;2.10;;;;;;;16.51;nan;61364.81;4972850;28;20182;-69
2023/05/12 11:09:58;;;;;;;2.80;2.25;;;;;;;16.63;nan;61415.06;4972886;28;20196;-70
2023/05/12 11:12:25;;;;;;;2.42;2.20;;;;;;;17.16;nan;61482.22;4972775;28;20173;-69
2023/05/12 11:14:50;;;;;;;2.80;2.20;;;;;;;17.10;nan;61470.28;4972715;28;20185;-69
2023/05/12 11:17:16;;;;;;;2.75;2.20;;;;;;;16.74;nan;61409.44;4972292;28;20556;-70
2023/05/12 11:19:47;;;;;;;3.40;2.28;;;;;;;17.43;nan;61483.28;4972602;28;20169;-69
2023/05/12 11:22:15;;;;;;;2.78;2.10;;;;;;;17.39;nan;61512.88;4973086;28;20185;-70
2023/05/12 11:24:41;;;;;;;3.30;2.17;;;;;;;17.21;nan;61474.41;4972182;28;20597;-69
2023/05/12 11:27:12;;;;;;;2.72;2.20;;;;;;;17.10;nan;61449.06;4972300;28;20173;-68
2023/05/12 11:29:40;;;;;;;3.60;2.08;;;;;;;16.87;nan;61611.41;4972600;28;20169;-70
2023/05/12 11:32:06;;;;;;;3.78;1.95;;;;;;;16.11;nan;61331.00;4971608;28;20177;-66
2023/05/12 11:34:31;;;;;;;2.80;2.28;;;;;;;15.57;nan;61301.44;4972444;28;20173;-67
2023/05/12 11:36:56;;;;;;;3.30;2.13;;;;;;;16.18;nan;61333.22;4972424;28;20264;-65
2023/05/12 11:39:29;;;;;;;3.20;2.42;;;;;;;16.87;nan;61408.13;4972433;28;20220;-65
2023/05/12 11:42:02;;;;;;;4.07;2.40;;;;;;;17.31;nan;61454.75;4972452;28;20168;-66
2023/05/12 11:44:28;;;;;;;4.53;2.22;;;;;;;16.95;nan;61635.97;4972310;28;20189;-65
2023/05/12 11:47:11;;;;;;;3.63;2.40;;;;;;;16.85;nan;61382.63;4971823;28;20173;-66